sensor_id;sensor_type;location;lat;lon;timestamp;P1;durP1;ratioP1;P2;durP2;ratioP2
61017;SDS011;48171;51.550;5.434;2022-07-23T00:00:59;8.15;;;5.03;;
61017;SDS011;48171;51.550;5.434;2022-07-23T00:03:25;9.27;;;4.90;;
61017;SDS011;48171;51.550;5.434;2022-07-23T00:05:50;7.63;;;4.88;;
61017;SDS011;48171;51.550;5.434;2022-07-23T00:08:15;9.55;;;4.90;;
61017;SDS011;48171;51.550;5.434;2022-07-23T00:10:41;10.32;;;4.90;;
61017;SDS011;48171;51.550;5.434;2022-07-23T00:13:06;8.55;;;5.10;;
61017;SDS011;48171;51.550;5.434;2022-07-23T00:15:32;9.25;;;4.50;;
61017;SDS011;48171;51.550;5.434;2022-07-23T00:17:57;9.73;;;4.50;;
61017;SDS011;48171;51.550;5.434;2022-07-23T00:20:22;8.23;;;4.53;;
61017;SDS011;48171;51.550;5.434;2022-07-23T00:22:52;7.68;;;4.50;;
61017;SDS011;48171;51.550;5.434;2022-07-23T00:25:19;7.13;;;4.20;;
61017;SDS011;48171;51.550;5.434;2022-07-23T00:27:48;8.75;;;5.50;;
61017;SDS011;48171;51.550;5.434;2022-07-23T00:30:13;8.32;;;4.65;;
61017;SDS011;48171;51.550;5.434;2022-07-23T00:32:48;7.90;;;4.70;;
61017;SDS011;48171;51.550;5.434;2022-07-23T00:35:15;7.25;;;4.85;;
61017;SDS011;48171;51.550;5.434;2022-07-23T00:37:41;9.32;;;4.82;;
61017;SDS011;48171;51.550;5.434;2022-07-23T00:40:07;8.18;;;5.07;;
61017;SDS011;48171;51.550;5.434;2022-07-23T00:42:33;8.32;;;5.30;;
61017;SDS011;48171;51.550;5.434;2022-07-23T00:44:59;9.38;;;5.05;;
61017;SDS011;48171;51.550;5.434;2022-07-23T00:47:24;10.35;;;5.05;;
61017;SDS011;48171;51.550;5.434;2022-07-23T00:49:49;8.65;;;5.65;;
61017;SDS011;48171;51.550;5.434;2022-07-23T00:52:15;11.20;;;4.88;;
61017;SDS011;48171;51.550;5.434;2022-07-23T00:54:40;11.02;;;4.82;;
61017;SDS011;48171;51.550;5.434;2022-07-23T00:57:06;14.73;;;5.07;;
61017;SDS011;48171;51.550;5.434;2022-07-23T00:59:31;8.32;;;5.13;;
61017;SDS011;48171;51.550;5.434;2022-07-23T01:01:57;12.20;;;5.35;;
61017;SDS011;48171;51.550;5.434;2022-07-23T01:04:22;9.75;;;5.28;;
61017;SDS011;48171;51.550;5.434;2022-07-23T01:06:47;10.32;;;5.53;;
61017;SDS011;48171;51.550;5.434;2022-07-23T01:09:13;8.48;;;4.63;;
61017;SDS011;48171;51.550;5.434;2022-07-23T01:11:38;6.72;;;4.50;;
61017;SDS011;48171;51.550;5.434;2022-07-23T01:14:09;8.45;;;5.05;;
61017;SDS011;48171;51.550;5.434;2022-07-23T01:16:35;9.15;;;5.43;;
61017;SDS011;48171;51.550;5.434;2022-07-23T01:19:00;8.80;;;5.10;;
61017;SDS011;48171;51.550;5.434;2022-07-23T01:21:25;11.70;;;5.03;;
61017;SDS011;48171;51.550;5.434;2022-07-23T01:23:51;10.75;;;5.80;;
61017;SDS011;48171;51.550;5.434;2022-07-23T01:26:16;10.05;;;5.90;;
61017;SDS011;48171;51.550;5.434;2022-07-23T01:28:42;9.23;;;5.72;;
61017;SDS011;48171;51.550;5.434;2022-07-23T01:31:07;8.35;;;4.88;;
61017;SDS011;48171;51.550;5.434;2022-07-23T01:33:33;7.45;;;4.95;;
61017;SDS011;48171;51.550;5.434;2022-07-23T01:35:58;9.43;;;5.18;;
61017;SDS011;48171;51.550;5.434;2022-07-23T01:38:23;11.43;;;5.80;;
61017;SDS011;48171;51.550;5.434;2022-07-23T01:40:49;9.50;;;5.13;;
61017;SDS011;48171;51.550;5.434;2022-07-23T01:43:14;9.07;;;5.10;;
61017;SDS011;48171;51.550;5.434;2022-07-23T01:45:39;9.02;;;5.00;;
61017;SDS011;48171;51.550;5.434;2022-07-23T01:48:05;9.93;;;5.80;;
61017;SDS011;48171;51.550;5.434;2022-07-23T01:50:30;13.13;;;5.45;;
61017;SDS011;48171;51.550;5.434;2022-07-23T01:52:56;9.23;;;5.88;;
61017;SDS011;48171;51.550;5.434;2022-07-23T01:55:21;10.63;;;6.05;;
61017;SDS011;48171;51.550;5.434;2022-07-23T01:57:46;8.77;;;5.82;;
61017;SDS011;48171;51.550;5.434;2022-07-23T02:00:12;9.13;;;5.88;;
61017;SDS011;48171;51.550;5.434;2022-07-23T02:02:37;8.45;;;5.47;;
61017;SDS011;48171;51.550;5.434;2022-07-23T02:05:02;8.45;;;4.85;;
61017;SDS011;48171;51.550;5.434;2022-07-23T02:07:28;8.27;;;4.93;;
61017;SDS011;48171;51.550;5.434;2022-07-23T02:09:53;8.40;;;4.82;;
61017;SDS011;48171;51.550;5.434;2022-07-23T02:12:19;7.78;;;4.78;;
61017;SDS011;48171;51.550;5.434;2022-07-23T02:14:44;9.10;;;4.80;;
61017;SDS011;48171;51.550;5.434;2022-07-23T02:17:09;8.02;;;5.15;;
61017;SDS011;48171;51.550;5.434;2022-07-23T02:19:35;7.38;;;4.57;;
61017;SDS011;48171;51.550;5.434;2022-07-23T02:22:00;10.65;;;4.95;;
61017;SDS011;48171;51.550;5.434;2022-07-23T02:24:25;8.38;;;5.03;;
61017;SDS011;48171;51.550;5.434;2022-07-23T02:26:51;9.30;;;5.45;;
61017;SDS011;48171;51.550;5.434;2022-07-23T02:29:16;7.93;;;4.95;;
61017;SDS011;48171;51.550;5.434;2022-07-23T02:31:41;9.63;;;5.50;;
61017;SDS011;48171;51.550;5.434;2022-07-23T02:34:07;9.43;;;5.38;;
61017;SDS011;48171;51.550;5.434;2022-07-23T02:36:32;9.23;;;5.25;;
61017;SDS011;48171;51.550;5.434;2022-07-23T02:38:57;9.07;;;5.07;;
61017;SDS011;48171;51.550;5.434;2022-07-23T02:41:23;10.07;;;5.43;;
61017;SDS011;48171;51.550;5.434;2022-07-23T02:43:49;11.05;;;5.95;;
61017;SDS011;48171;51.550;5.434;2022-07-23T02:46:14;12.48;;;5.30;;
61017;SDS011;48171;51.550;5.434;2022-07-23T02:48:39;9.15;;;4.93;;
61017;SDS011;48171;51.550;5.434;2022-07-23T02:51:05;10.02;;;5.68;;
61017;SDS011;48171;51.550;5.434;2022-07-23T02:53:30;15.18;;;6.18;;
61017;SDS011;48171;51.550;5.434;2022-07-23T02:55:55;16.42;;;7.13;;
61017;SDS011;48171;51.550;5.434;2022-07-23T02:58:21;8.95;;;6.15;;
61017;SDS011;48171;51.550;5.434;2022-07-23T03:00:46;13.82;;;6.97;;
61017;SDS011;48171;51.550;5.434;2022-07-23T03:03:12;9.73;;;6.25;;
61017;SDS011;48171;51.550;5.434;2022-07-23T03:05:37;11.63;;;6.30;;
61017;SDS011;48171;51.550;5.434;2022-07-23T03:08:02;10.85;;;6.50;;
61017;SDS011;48171;51.550;5.434;2022-07-23T03:10:27;10.05;;;6.50;;
61017;SDS011;48171;51.550;5.434;2022-07-23T03:12:53;11.32;;;6.25;;
61017;SDS011;48171;51.550;5.434;2022-07-23T03:15:18;11.07;;;6.47;;
61017;SDS011;48171;51.550;5.434;2022-07-23T03:17:43;13.63;;;6.97;;
61017;SDS011;48171;51.550;5.434;2022-07-23T03:20:09;10.65;;;7.00;;
61017;SDS011;48171;51.550;5.434;2022-07-23T03:22:34;10.93;;;6.82;;
61017;SDS011;48171;51.550;5.434;2022-07-23T03:25:00;12.02;;;7.35;;
61017;SDS011;48171;51.550;5.434;2022-07-23T03:27:26;13.35;;;7.40;;
61017;SDS011;48171;51.550;5.434;2022-07-23T03:29:54;10.32;;;6.85;;
61017;SDS011;48171;51.550;5.434;2022-07-23T03:32:21;11.27;;;7.75;;
61017;SDS011;48171;51.550;5.434;2022-07-23T03:34:47;11.10;;;6.80;;
61017;SDS011;48171;51.550;5.434;2022-07-23T03:37:12;11.05;;;6.90;;
61017;SDS011;48171;51.550;5.434;2022-07-23T03:39:38;17.02;;;8.07;;
61017;SDS011;48171;51.550;5.434;2022-07-23T03:42:03;14.85;;;8.40;;
61017;SDS011;48171;51.550;5.434;2022-07-23T03:44:29;15.25;;;8.25;;
61017;SDS011;48171;51.550;5.434;2022-07-23T03:46:54;12.52;;;8.15;;
61017;SDS011;48171;51.550;5.434;2022-07-23T03:49:20;15.23;;;8.85;;
61017;SDS011;48171;51.550;5.434;2022-07-23T03:51:45;18.45;;;10.25;;
61017;SDS011;48171;51.550;5.434;2022-07-23T03:54:10;15.95;;;9.20;;
61017;SDS011;48171;51.550;5.434;2022-07-23T03:56:36;15.35;;;9.27;;
61017;SDS011;48171;51.550;5.434;2022-07-23T03:59:01;17.33;;;10.32;;
61017;SDS011;48171;51.550;5.434;2022-07-23T04:01:26;16.90;;;9.63;;
61017;SDS011;48171;51.550;5.434;2022-07-23T04:03:52;19.08;;;10.93;;
61017;SDS011;48171;51.550;5.434;2022-07-23T04:06:17;16.70;;;9.52;;
61017;SDS011;48171;51.550;5.434;2022-07-23T04:08:43;18.15;;;10.88;;
61017;SDS011;48171;51.550;5.434;2022-07-23T04:11:08;14.30;;;8.77;;
61017;SDS011;48171;51.550;5.434;2022-07-23T04:13:33;15.45;;;7.85;;
61017;SDS011;48171;51.550;5.434;2022-07-23T04:15:59;14.30;;;8.57;;
61017;SDS011;48171;51.550;5.434;2022-07-23T04:18:24;15.48;;;8.57;;
61017;SDS011;48171;51.550;5.434;2022-07-23T04:20:53;13.82;;;8.40;;
61017;SDS011;48171;51.550;5.434;2022-07-23T04:23:18;16.85;;;9.48;;
61017;SDS011;48171;51.550;5.434;2022-07-23T04:25:43;17.60;;;10.60;;
61017;SDS011;48171;51.550;5.434;2022-07-23T04:28:09;17.48;;;10.07;;
61017;SDS011;48171;51.550;5.434;2022-07-23T04:30:34;19.45;;;10.43;;
61017;SDS011;48171;51.550;5.434;2022-07-23T04:32:59;19.15;;;11.82;;
61017;SDS011;48171;51.550;5.434;2022-07-23T04:35:25;17.15;;;9.52;;
61017;SDS011;48171;51.550;5.434;2022-07-23T04:37:50;18.60;;;11.00;;
61017;SDS011;48171;51.550;5.434;2022-07-23T04:40:15;17.42;;;9.93;;
61017;SDS011;48171;51.550;5.434;2022-07-23T04:42:41;16.08;;;9.77;;
61017;SDS011;48171;51.550;5.434;2022-07-23T04:45:06;18.90;;;10.00;;
61017;SDS011;48171;51.550;5.434;2022-07-23T04:47:32;18.20;;;10.10;;
61017;SDS011;48171;51.550;5.434;2022-07-23T04:49:57;18.52;;;10.48;;
61017;SDS011;48171;51.550;5.434;2022-07-23T04:52:23;19.25;;;10.52;;
61017;SDS011;48171;51.550;5.434;2022-07-23T04:54:48;16.80;;;10.20;;
61017;SDS011;48171;51.550;5.434;2022-07-23T04:57:14;17.65;;;10.63;;
61017;SDS011;48171;51.550;5.434;2022-07-23T04:59:39;17.85;;;10.75;;
61017;SDS011;48171;51.550;5.434;2022-07-23T05:02:04;17.95;;;10.50;;
61017;SDS011;48171;51.550;5.434;2022-07-23T05:04:30;20.17;;;11.43;;
61017;SDS011;48171;51.550;5.434;2022-07-23T05:06:56;17.05;;;10.60;;
61017;SDS011;48171;51.550;5.434;2022-07-23T05:09:21;19.60;;;11.27;;
61017;SDS011;48171;51.550;5.434;2022-07-23T05:11:47;19.83;;;11.35;;
61017;SDS011;48171;51.550;5.434;2022-07-23T05:14:12;20.15;;;11.55;;
61017;SDS011;48171;51.550;5.434;2022-07-23T05:16:38;19.70;;;11.73;;
61017;SDS011;48171;51.550;5.434;2022-07-23T05:19:03;18.52;;;11.95;;
61017;SDS011;48171;51.550;5.434;2022-07-23T05:21:28;20.48;;;11.95;;
61017;SDS011;48171;51.550;5.434;2022-07-23T05:23:54;22.00;;;12.10;;
61017;SDS011;48171;51.550;5.434;2022-07-23T05:26:19;25.08;;;11.90;;
61017;SDS011;48171;51.550;5.434;2022-07-23T05:28:44;20.10;;;11.90;;
61017;SDS011;48171;51.550;5.434;2022-07-23T05:31:10;22.17;;;11.80;;
61017;SDS011;48171;51.550;5.434;2022-07-23T05:33:35;19.33;;;12.18;;
61017;SDS011;48171;51.550;5.434;2022-07-23T05:36:03;17.33;;;10.77;;
61017;SDS011;48171;51.550;5.434;2022-07-23T05:38:29;18.05;;;11.57;;
61017;SDS011;48171;51.550;5.434;2022-07-23T05:40:55;22.73;;;12.35;;
61017;SDS011;48171;51.550;5.434;2022-07-23T05:43:21;22.00;;;12.88;;
61017;SDS011;48171;51.550;5.434;2022-07-23T05:45:46;24.65;;;12.52;;
61017;SDS011;48171;51.550;5.434;2022-07-23T05:48:11;20.85;;;12.65;;
61017;SDS011;48171;51.550;5.434;2022-07-23T05:50:37;20.50;;;12.18;;
61017;SDS011;48171;51.550;5.434;2022-07-23T05:53:03;20.20;;;12.35;;
61017;SDS011;48171;51.550;5.434;2022-07-23T05:55:28;20.80;;;12.18;;
61017;SDS011;48171;51.550;5.434;2022-07-23T05:57:56;21.38;;;11.93;;
61017;SDS011;48171;51.550;5.434;2022-07-23T06:00:22;20.88;;;12.48;;
61017;SDS011;48171;51.550;5.434;2022-07-23T06:02:48;21.10;;;12.30;;
61017;SDS011;48171;51.550;5.434;2022-07-23T06:05:13;25.67;;;13.27;;
61017;SDS011;48171;51.550;5.434;2022-07-23T06:07:39;18.67;;;11.32;;
61017;SDS011;48171;51.550;5.434;2022-07-23T06:10:04;20.52;;;12.55;;
61017;SDS011;48171;51.550;5.434;2022-07-23T06:12:30;21.55;;;12.73;;
61017;SDS011;48171;51.550;5.434;2022-07-23T06:14:56;23.73;;;13.02;;
61017;SDS011;48171;51.550;5.434;2022-07-23T06:17:21;23.55;;;12.95;;
61017;SDS011;48171;51.550;5.434;2022-07-23T06:19:46;23.25;;;12.45;;
61017;SDS011;48171;51.550;5.434;2022-07-23T06:22:12;23.33;;;12.55;;
61017;SDS011;48171;51.550;5.434;2022-07-23T06:24:37;18.90;;;11.95;;
61017;SDS011;48171;51.550;5.434;2022-07-23T06:27:03;21.58;;;11.70;;
61017;SDS011;48171;51.550;5.434;2022-07-23T06:29:28;20.67;;;12.15;;
61017;SDS011;48171;51.550;5.434;2022-07-23T06:31:53;21.52;;;12.07;;
61017;SDS011;48171;51.550;5.434;2022-07-23T06:34:19;19.65;;;10.88;;
61017;SDS011;48171;51.550;5.434;2022-07-23T06:36:44;19.17;;;11.55;;
61017;SDS011;48171;51.550;5.434;2022-07-23T06:39:09;22.33;;;11.73;;
61017;SDS011;48171;51.550;5.434;2022-07-23T06:41:34;20.08;;;11.30;;
61017;SDS011;48171;51.550;5.434;2022-07-23T06:44:00;18.90;;;10.25;;
61017;SDS011;48171;51.550;5.434;2022-07-23T06:46:25;16.17;;;8.77;;
61017;SDS011;48171;51.550;5.434;2022-07-23T06:48:50;16.55;;;8.68;;
61017;SDS011;48171;51.550;5.434;2022-07-23T06:51:16;15.18;;;8.70;;
61017;SDS011;48171;51.550;5.434;2022-07-23T06:53:41;14.43;;;8.88;;
61017;SDS011;48171;51.550;5.434;2022-07-23T06:56:06;17.27;;;9.07;;
61017;SDS011;48171;51.550;5.434;2022-07-23T06:58:32;15.40;;;8.23;;
61017;SDS011;48171;51.550;5.434;2022-07-23T07:00:57;15.52;;;8.30;;
61017;SDS011;48171;51.550;5.434;2022-07-23T07:03:22;16.55;;;8.98;;
61017;SDS011;48171;51.550;5.434;2022-07-23T07:05:48;17.40;;;8.57;;
61017;SDS011;48171;51.550;5.434;2022-07-23T07:08:14;15.93;;;8.13;;
61017;SDS011;48171;51.550;5.434;2022-07-23T07:10:40;14.30;;;7.57;;
61017;SDS011;48171;51.550;5.434;2022-07-23T07:13:05;13.15;;;7.20;;
61017;SDS011;48171;51.550;5.434;2022-07-23T07:15:30;16.70;;;9.23;;
61017;SDS011;48171;51.550;5.434;2022-07-23T07:17:55;16.30;;;7.80;;
61017;SDS011;48171;51.550;5.434;2022-07-23T07:20:21;15.07;;;8.60;;
61017;SDS011;48171;51.550;5.434;2022-07-23T07:22:46;16.30;;;7.78;;
61017;SDS011;48171;51.550;5.434;2022-07-23T07:25:11;13.20;;;7.20;;
61017;SDS011;48171;51.550;5.434;2022-07-23T07:27:37;12.00;;;7.35;;
61017;SDS011;48171;51.550;5.434;2022-07-23T07:30:03;12.63;;;6.90;;
61017;SDS011;48171;51.550;5.434;2022-07-23T07:32:29;12.82;;;6.57;;
61017;SDS011;48171;51.550;5.434;2022-07-23T07:34:57;11.07;;;6.43;;
61017;SDS011;48171;51.550;5.434;2022-07-23T07:37:22;11.85;;;6.90;;
61017;SDS011;48171;51.550;5.434;2022-07-23T07:39:48;14.55;;;6.90;;
61017;SDS011;48171;51.550;5.434;2022-07-23T07:42:13;11.15;;;6.50;;
61017;SDS011;48171;51.550;5.434;2022-07-23T07:44:38;11.73;;;7.10;;
61017;SDS011;48171;51.550;5.434;2022-07-23T07:47:03;12.55;;;6.63;;
61017;SDS011;48171;51.550;5.434;2022-07-23T07:49:29;11.32;;;6.75;;
61017;SDS011;48171;51.550;5.434;2022-07-23T07:51:54;12.98;;;6.72;;
61017;SDS011;48171;51.550;5.434;2022-07-23T07:54:19;11.38;;;6.07;;
61017;SDS011;48171;51.550;5.434;2022-07-23T07:56:44;12.27;;;6.15;;
61017;SDS011;48171;51.550;5.434;2022-07-23T07:59:10;12.30;;;6.40;;
61017;SDS011;48171;51.550;5.434;2022-07-23T08:01:36;10.48;;;6.38;;
61017;SDS011;48171;51.550;5.434;2022-07-23T08:04:01;11.07;;;6.28;;
61017;SDS011;48171;51.550;5.434;2022-07-23T08:06:26;13.57;;;6.45;;
61017;SDS011;48171;51.550;5.434;2022-07-23T08:08:52;13.43;;;5.90;;
61017;SDS011;48171;51.550;5.434;2022-07-23T08:11:17;13.60;;;6.43;;
61017;SDS011;48171;51.550;5.434;2022-07-23T08:13:42;13.75;;;6.75;;
61017;SDS011;48171;51.550;5.434;2022-07-23T08:16:09;10.60;;;5.50;;
61017;SDS011;48171;51.550;5.434;2022-07-23T08:18:34;12.73;;;6.00;;
61017;SDS011;48171;51.550;5.434;2022-07-23T08:21:00;9.60;;;5.68;;
61017;SDS011;48171;51.550;5.434;2022-07-23T08:23:25;10.40;;;5.28;;
61017;SDS011;48171;51.550;5.434;2022-07-23T08:25:50;10.35;;;5.45;;
61017;SDS011;48171;51.550;5.434;2022-07-23T08:28:15;9.27;;;5.15;;
61017;SDS011;48171;51.550;5.434;2022-07-23T08:30:41;12.95;;;6.20;;
61017;SDS011;48171;51.550;5.434;2022-07-23T08:33:15;17.95;;;6.38;;
61017;SDS011;48171;51.550;5.434;2022-07-23T08:35:42;10.70;;;5.35;;
61017;SDS011;48171;51.550;5.434;2022-07-23T08:38:11;11.73;;;5.38;;
61017;SDS011;48171;51.550;5.434;2022-07-23T08:40:39;14.32;;;5.82;;
61017;SDS011;48171;51.550;5.434;2022-07-23T08:43:07;10.07;;;5.50;;
61017;SDS011;48171;51.550;5.434;2022-07-23T08:45:35;11.15;;;5.75;;
61017;SDS011;48171;51.550;5.434;2022-07-23T08:48:03;9.87;;;5.20;;
61017;SDS011;48171;51.550;5.434;2022-07-23T08:50:32;9.57;;;5.45;;
61017;SDS011;48171;51.550;5.434;2022-07-23T08:52:59;11.82;;;5.70;;
61017;SDS011;48171;51.550;5.434;2022-07-23T08:55:25;9.90;;;5.07;;
61017;SDS011;48171;51.550;5.434;2022-07-23T08:57:52;13.55;;;5.60;;
61017;SDS011;48171;51.550;5.434;2022-07-23T09:00:18;13.18;;;6.10;;
61017;SDS011;48171;51.550;5.434;2022-07-23T09:02:45;10.15;;;5.55;;
61017;SDS011;48171;51.550;5.434;2022-07-23T09:05:12;11.30;;;5.75;;
61017;SDS011;48171;51.550;5.434;2022-07-23T09:08:02;9.88;;;5.50;;
61017;SDS011;48171;51.550;5.434;2022-07-23T09:18:40;8.65;;;4.93;;
61017;SDS011;48171;51.550;5.434;2022-07-23T09:23:45;11.57;;;5.45;;
61017;SDS011;48171;51.550;5.434;2022-07-23T09:26:21;11.07;;;5.40;;
61017;SDS011;48171;51.550;5.434;2022-07-23T09:29:02;9.23;;;5.00;;
61017;SDS011;48171;51.550;5.434;2022-07-23T09:34:16;10.25;;;5.22;;
61017;SDS011;48171;51.550;5.434;2022-07-23T09:36:48;9.80;;;5.38;;
61017;SDS011;48171;51.550;5.434;2022-07-23T09:39:15;8.82;;;4.78;;
61017;SDS011;48171;51.550;5.434;2022-07-23T09:41:46;11.55;;;4.95;;
61017;SDS011;48171;51.550;5.434;2022-07-23T09:44:16;12.80;;;4.50;;
61017;SDS011;48171;51.550;5.434;2022-07-23T09:46:44;12.95;;;5.07;;
61017;SDS011;48171;51.550;5.434;2022-07-23T09:51:49;8.13;;;4.40;;
61017;SDS011;48171;51.550;5.434;2022-07-23T09:54:23;10.75;;;5.70;;
61017;SDS011;48171;51.550;5.434;2022-07-23T09:56:54;11.85;;;5.38;;
61017;SDS011;48171;51.550;5.434;2022-07-23T09:59:27;9.50;;;5.03;;
61017;SDS011;48171;51.550;5.434;2022-07-23T10:01:55;13.27;;;4.72;;
61017;SDS011;48171;51.550;5.434;2022-07-23T10:04:24;8.25;;;5.13;;
61017;SDS011;48171;51.550;5.434;2022-07-23T10:06:51;8.35;;;4.50;;
61017;SDS011;48171;51.550;5.434;2022-07-23T10:09:22;11.35;;;4.60;;
61017;SDS011;48171;51.550;5.434;2022-07-23T10:12:12;9.82;;;4.38;;
61017;SDS011;48171;51.550;5.434;2022-07-23T10:14:43;47.83;;;31.67;;
61017;SDS011;48171;51.550;5.434;2022-07-23T10:17:09;102.05;;;66.65;;
61017;SDS011;48171;51.550;5.434;2022-07-23T10:19:35;13.10;;;7.13;;
61017;SDS011;48171;51.550;5.434;2022-07-23T10:22:01;10.05;;;6.65;;
61017;SDS011;48171;51.550;5.434;2022-07-23T10:24:40;11.70;;;5.05;;
61017;SDS011;48171;51.550;5.434;2022-07-23T10:27:31;9.20;;;4.18;;
61017;SDS011;48171;51.550;5.434;2022-07-23T10:30:21;9.20;;;4.18;;
61017;SDS011;48171;51.550;5.434;2022-07-23T10:43:22;7.30;;;3.35;;
61017;SDS011;48171;51.550;5.434;2022-07-23T10:45:48;6.22;;;3.22;;
61017;SDS011;48171;51.550;5.434;2022-07-23T10:48:21;7.85;;;2.90;;
61017;SDS011;48171;51.550;5.434;2022-07-23T10:51:13;4.80;;;2.63;;
61017;SDS011;48171;51.550;5.434;2022-07-23T10:56:14;5.22;;;2.90;;
61017;SDS011;48171;51.550;5.434;2022-07-23T10:58:47;4.68;;;2.53;;
61017;SDS011;48171;51.550;5.434;2022-07-23T11:04:03;10.00;;;4.30;;
61017;SDS011;48171;51.550;5.434;2022-07-23T11:07:06;9.93;;;4.43;;
61017;SDS011;48171;51.550;5.434;2022-07-23T11:20:16;6.10;;;3.13;;
61017;SDS011;48171;51.550;5.434;2022-07-23T11:25:08;6.33;;;3.27;;
61017;SDS011;48171;51.550;5.434;2022-07-23T11:27:41;6.00;;;3.38;;
61017;SDS011;48171;51.550;5.434;2022-07-23T11:30:12;7.30;;;3.90;;
61017;SDS011;48171;51.550;5.434;2022-07-23T11:35:34;6.20;;;3.28;;
61017;SDS011;48171;51.550;5.434;2022-07-23T11:38:08;6.57;;;3.20;;
61017;SDS011;48171;51.550;5.434;2022-07-23T11:40:39;6.55;;;3.72;;
61017;SDS011;48171;51.550;5.434;2022-07-23T11:43:05;6.65;;;3.40;;
61017;SDS011;48171;51.550;5.434;2022-07-23T11:45:34;8.05;;;3.90;;
61017;SDS011;48171;51.550;5.434;2022-07-23T11:48:05;4.60;;;2.80;;
61017;SDS011;48171;51.550;5.434;2022-07-23T11:50:32;6.53;;;3.58;;
61017;SDS011;48171;51.550;5.434;2022-07-23T11:52:57;7.57;;;3.42;;
61017;SDS011;48171;51.550;5.434;2022-07-23T11:55:23;8.07;;;3.53;;
61017;SDS011;48171;51.550;5.434;2022-07-23T11:57:50;7.95;;;3.58;;
61017;SDS011;48171;51.550;5.434;2022-07-23T12:00:20;7.30;;;3.80;;
61017;SDS011;48171;51.550;5.434;2022-07-23T12:02:50;7.55;;;3.90;;
61017;SDS011;48171;51.550;5.434;2022-07-23T12:05:20;8.25;;;4.18;;
61017;SDS011;48171;51.550;5.434;2022-07-23T12:07:48;8.57;;;4.45;;
61017;SDS011;48171;51.550;5.434;2022-07-23T12:12:43;7.68;;;4.13;;
61017;SDS011;48171;51.550;5.434;2022-07-23T12:15:12;6.68;;;4.57;;
61017;SDS011;48171;51.550;5.434;2022-07-23T12:17:39;9.15;;;4.22;;
61017;SDS011;48171;51.550;5.434;2022-07-23T12:20:07;9.45;;;4.65;;
61017;SDS011;48171;51.550;5.434;2022-07-23T12:22:38;6.78;;;3.70;;
61017;SDS011;48171;51.550;5.434;2022-07-23T12:25:10;9.13;;;4.00;;
61017;SDS011;48171;51.550;5.434;2022-07-23T12:27:46;9.05;;;4.45;;
61017;SDS011;48171;51.550;5.434;2022-07-23T12:33:02;6.70;;;4.15;;
61017;SDS011;48171;51.550;5.434;2022-07-23T12:35:30;7.75;;;4.20;;
61017;SDS011;48171;51.550;5.434;2022-07-23T12:38:03;6.97;;;3.83;;
61017;SDS011;48171;51.550;5.434;2022-07-23T12:40:40;7.30;;;3.78;;
61017;SDS011;48171;51.550;5.434;2022-07-23T12:43:11;7.32;;;3.65;;
61017;SDS011;48171;51.550;5.434;2022-07-23T12:45:51;9.60;;;4.15;;
61017;SDS011;48171;51.550;5.434;2022-07-23T12:48:19;8.25;;;4.10;;
61017;SDS011;48171;51.550;5.434;2022-07-23T12:55:48;6.32;;;3.60;;
61017;SDS011;48171;51.550;5.434;2022-07-23T12:58:18;6.85;;;3.63;;
61017;SDS011;48171;51.550;5.434;2022-07-23T13:00:56;5.90;;;3.53;;
61017;SDS011;48171;51.550;5.434;2022-07-23T13:03:53;9.27;;;4.35;;
61017;SDS011;48171;51.550;5.434;2022-07-23T13:06:19;7.53;;;4.30;;
61017;SDS011;48171;51.550;5.434;2022-07-23T13:08:44;8.50;;;4.65;;
61017;SDS011;48171;51.550;5.434;2022-07-23T13:11:09;7.18;;;4.22;;
61017;SDS011;48171;51.550;5.434;2022-07-23T13:13:35;9.27;;;4.05;;
61017;SDS011;48171;51.550;5.434;2022-07-23T13:16:00;9.40;;;4.05;;
61017;SDS011;48171;51.550;5.434;2022-07-23T13:18:27;7.38;;;3.58;;
61017;SDS011;48171;51.550;5.434;2022-07-23T13:20:53;7.53;;;4.03;;
61017;SDS011;48171;51.550;5.434;2022-07-23T13:23:18;7.35;;;4.03;;
61017;SDS011;48171;51.550;5.434;2022-07-23T13:25:44;9.05;;;4.00;;
61017;SDS011;48171;51.550;5.434;2022-07-23T13:28:11;7.50;;;3.70;;
61017;SDS011;48171;51.550;5.434;2022-07-23T13:30:37;7.05;;;4.30;;
61017;SDS011;48171;51.550;5.434;2022-07-23T13:33:03;6.85;;;3.85;;
61017;SDS011;48171;51.550;5.434;2022-07-23T13:35:28;7.40;;;4.30;;
61017;SDS011;48171;51.550;5.434;2022-07-23T13:37:54;5.65;;;3.65;;
61017;SDS011;48171;51.550;5.434;2022-07-23T13:40:19;6.72;;;3.72;;
61017;SDS011;48171;51.550;5.434;2022-07-23T13:42:45;8.02;;;4.22;;
61017;SDS011;48171;51.550;5.434;2022-07-23T13:45:10;9.15;;;4.45;;
61017;SDS011;48171;51.550;5.434;2022-07-23T13:47:36;7.40;;;3.90;;
61017;SDS011;48171;51.550;5.434;2022-07-23T13:50:02;7.97;;;3.75;;
61017;SDS011;48171;51.550;5.434;2022-07-23T13:52:28;6.80;;;3.75;;
61017;SDS011;48171;51.550;5.434;2022-07-23T13:54:53;6.32;;;3.67;;
61017;SDS011;48171;51.550;5.434;2022-07-23T13:57:19;8.98;;;4.68;;
61017;SDS011;48171;51.550;5.434;2022-07-23T13:59:44;7.05;;;3.60;;
61017;SDS011;48171;51.550;5.434;2022-07-23T14:02:09;9.48;;;4.32;;
61017;SDS011;48171;51.550;5.434;2022-07-23T14:04:35;7.40;;;3.67;;
61017;SDS011;48171;51.550;5.434;2022-07-23T14:07:00;5.93;;;3.40;;
61017;SDS011;48171;51.550;5.434;2022-07-23T14:09:26;8.02;;;4.03;;
61017;SDS011;48171;51.550;5.434;2022-07-23T14:11:52;6.10;;;3.70;;
61017;SDS011;48171;51.550;5.434;2022-07-23T14:14:17;7.72;;;4.28;;
61017;SDS011;48171;51.550;5.434;2022-07-23T14:16:43;7.38;;;4.03;;
61017;SDS011;48171;51.550;5.434;2022-07-23T14:19:09;9.13;;;4.20;;
61017;SDS011;48171;51.550;5.434;2022-07-23T14:21:35;7.47;;;3.72;;
61017;SDS011;48171;51.550;5.434;2022-07-23T14:24:00;6.88;;;3.90;;
61017;SDS011;48171;51.550;5.434;2022-07-23T14:26:26;7.65;;;3.80;;
61017;SDS011;48171;51.550;5.434;2022-07-23T14:28:52;7.75;;;3.88;;
61017;SDS011;48171;51.550;5.434;2022-07-23T14:31:17;5.53;;;3.75;;
61017;SDS011;48171;51.550;5.434;2022-07-23T14:33:42;6.88;;;4.18;;
61017;SDS011;48171;51.550;5.434;2022-07-23T14:36:07;7.30;;;3.78;;
61017;SDS011;48171;51.550;5.434;2022-07-23T14:38:33;7.63;;;3.80;;
61017;SDS011;48171;51.550;5.434;2022-07-23T14:40:58;6.50;;;3.55;;
61017;SDS011;48171;51.550;5.434;2022-07-23T14:43:23;7.05;;;3.75;;
61017;SDS011;48171;51.550;5.434;2022-07-23T14:45:49;9.15;;;4.05;;
61017;SDS011;48171;51.550;5.434;2022-07-23T14:48:14;4.43;;;3.42;;
61017;SDS011;48171;51.550;5.434;2022-07-23T14:50:39;8.30;;;3.83;;
61017;SDS011;48171;51.550;5.434;2022-07-23T14:53:05;6.97;;;3.65;;
61017;SDS011;48171;51.550;5.434;2022-07-23T14:55:31;6.82;;;3.78;;
61017;SDS011;48171;51.550;5.434;2022-07-23T14:57:57;6.15;;;3.92;;
61017;SDS011;48171;51.550;5.434;2022-07-23T15:00:22;7.03;;;3.78;;
61017;SDS011;48171;51.550;5.434;2022-07-23T15:02:47;6.93;;;3.80;;
61017;SDS011;48171;51.550;5.434;2022-07-23T15:05:13;6.88;;;3.70;;
61017;SDS011;48171;51.550;5.434;2022-07-23T15:07:38;7.35;;;4.50;;
61017;SDS011;48171;51.550;5.434;2022-07-23T15:10:03;6.82;;;4.03;;
61017;SDS011;48171;51.550;5.434;2022-07-23T15:12:29;6.90;;;3.63;;
61017;SDS011;48171;51.550;5.434;2022-07-23T15:14:54;8.88;;;4.22;;
61017;SDS011;48171;51.550;5.434;2022-07-23T15:17:20;6.68;;;3.67;;
61017;SDS011;48171;51.550;5.434;2022-07-23T15:19:45;6.03;;;3.92;;
61017;SDS011;48171;51.550;5.434;2022-07-23T15:22:10;8.02;;;3.75;;
61017;SDS011;48171;51.550;5.434;2022-07-23T15:24:36;6.03;;;3.95;;
61017;SDS011;48171;51.550;5.434;2022-07-23T15:27:01;5.57;;;3.75;;
61017;SDS011;48171;51.550;5.434;2022-07-23T15:29:26;5.90;;;3.80;;
61017;SDS011;48171;51.550;5.434;2022-07-23T15:31:51;7.80;;;4.25;;
61017;SDS011;48171;51.550;5.434;2022-07-23T15:34:17;6.50;;;3.90;;